sensor_id;sensor_type;location;lat;lon;timestamp;P1;durP1;ratioP1;P2;durP2;ratioP2
70545;SDS011;58098;51.680;5.134;2023-03-23T00:01:10;10.02;;;4.13;;
70545;SDS011;58098;51.680;5.134;2023-03-23T00:03:44;12.87;;;4.00;;
70545;SDS011;58098;51.680;5.134;2023-03-23T00:06:11;5.22;;;3.75;;
70545;SDS011;58098;51.680;5.134;2023-03-23T00:08:42;7.20;;;4.40;;
70545;SDS011;58098;51.680;5.134;2023-03-23T00:11:12;7.47;;;3.97;;
70545;SDS011;58098;51.680;5.134;2023-03-23T00:13:43;7.30;;;3.80;;
70545;SDS011;58098;51.680;5.134;2023-03-23T00:16:10;5.77;;;4.37;;
70545;SDS011;58098;51.680;5.134;2023-03-23T00:18:44;6.55;;;3.90;;
70545;SDS011;58098;51.680;5.134;2023-03-23T00:21:09;7.57;;;4.20;;
70545;SDS011;58098;51.680;5.134;2023-03-23T00:23:34;5.43;;;4.17;;
70545;SDS011;58098;51.680;5.134;2023-03-23T00:26:00;8.00;;;4.73;;
70545;SDS011;58098;51.680;5.134;2023-03-23T00:28:26;8.23;;;4.23;;
70545;SDS011;58098;51.680;5.134;2023-03-23T00:30:56;5.97;;;4.00;;
70545;SDS011;58098;51.680;5.134;2023-03-23T00:33:22;6.20;;;4.40;;
70545;SDS011;58098;51.680;5.134;2023-03-23T00:35:48;6.68;;;4.20;;
70545;SDS011;58098;51.680;5.134;2023-03-23T00:38:17;6.53;;;4.28;;
70545;SDS011;58098;51.680;5.134;2023-03-23T00:40:43;7.70;;;4.20;;
70545;SDS011;58098;51.680;5.134;2023-03-23T00:43:08;7.55;;;3.90;;
70545;SDS011;58098;51.680;5.134;2023-03-23T00:45:38;10.73;;;4.50;;
70545;SDS011;58098;51.680;5.134;2023-03-23T00:48:04;6.57;;;4.13;;
70545;SDS011;58098;51.680;5.134;2023-03-23T00:50:30;9.87;;;4.67;;
70545;SDS011;58098;51.680;5.134;2023-03-23T00:52:56;7.63;;;4.50;;
70545;SDS011;58098;51.680;5.134;2023-03-23T00:55:22;5.95;;;5.03;;
70545;SDS011;58098;51.680;5.134;2023-03-23T00:57:48;8.50;;;4.37;;
70545;SDS011;58098;51.680;5.134;2023-03-23T01:00:15;6.32;;;4.20;;
70545;SDS011;58098;51.680;5.134;2023-03-23T01:02:41;7.32;;;5.07;;
70545;SDS011;58098;51.680;5.134;2023-03-23T01:05:09;9.10;;;4.82;;
70545;SDS011;58098;51.680;5.134;2023-03-23T01:07:35;6.95;;;4.68;;
70545;SDS011;58098;51.680;5.134;2023-03-23T01:10:01;6.87;;;4.73;;
70545;SDS011;58098;51.680;5.134;2023-03-23T01:12:28;6.18;;;4.55;;
70545;SDS011;58098;51.680;5.134;2023-03-23T01:14:53;5.23;;;4.07;;
70545;SDS011;58098;51.680;5.134;2023-03-23T01:17:18;7.10;;;4.57;;
70545;SDS011;58098;51.680;5.134;2023-03-23T01:19:45;5.95;;;4.53;;
70545;SDS011;58098;51.680;5.134;2023-03-23T01:22:11;8.10;;;4.70;;
70545;SDS011;58098;51.680;5.134;2023-03-23T01:24:36;5.80;;;5.00;;
70545;SDS011;58098;51.680;5.134;2023-03-23T01:27:02;8.47;;;5.07;;
70545;SDS011;58098;51.680;5.134;2023-03-23T01:29:31;8.20;;;4.90;;
70545;SDS011;58098;51.680;5.134;2023-03-23T01:31:58;8.18;;;4.88;;
70545;SDS011;58098;51.680;5.134;2023-03-23T01:34:23;9.57;;;5.20;;
70545;SDS011;58098;51.680;5.134;2023-03-23T01:36:49;7.23;;;4.80;;
70545;SDS011;58098;51.680;5.134;2023-03-23T01:39:14;6.63;;;4.43;;
70545;SDS011;58098;51.680;5.134;2023-03-23T01:41:39;8.50;;;4.70;;
70545;SDS011;58098;51.680;5.134;2023-03-23T01:46:40;8.85;;;5.20;;
70545;SDS011;58098;51.680;5.134;2023-03-23T01:49:07;6.77;;;4.67;;
70545;SDS011;58098;51.680;5.134;2023-03-23T01:51:37;8.65;;;4.75;;
70545;SDS011;58098;51.680;5.134;2023-03-23T01:54:08;13.55;;;5.18;;
70545;SDS011;58098;51.680;5.134;2023-03-23T01:56:39;7.38;;;4.38;;
70545;SDS011;58098;51.680;5.134;2023-03-23T01:59:10;7.47;;;5.10;;
70545;SDS011;58098;51.680;5.134;2023-03-23T02:01:36;6.78;;;4.82;;
70545;SDS011;58098;51.680;5.134;2023-03-23T02:04:08;7.82;;;4.82;;
70545;SDS011;58098;51.680;5.134;2023-03-23T02:06:34;6.43;;;4.20;;
70545;SDS011;58098;51.680;5.134;2023-03-23T02:08:59;8.57;;;4.60;;
70545;SDS011;58098;51.680;5.134;2023-03-23T02:11:25;8.65;;;4.80;;
70545;SDS011;58098;51.680;5.134;2023-03-23T02:13:50;6.73;;;4.40;;
70545;SDS011;58098;51.680;5.134;2023-03-23T02:22:22;7.07;;;4.30;;
70545;SDS011;58098;51.680;5.134;2023-03-23T02:28:05;7.78;;;4.43;;
70545;SDS011;58098;51.680;5.134;2023-03-23T02:36:05;8.70;;;4.60;;
70545;SDS011;58098;51.680;5.134;2023-03-23T02:41:22;6.05;;;3.90;;
70545;SDS011;58098;51.680;5.134;2023-03-23T02:43:50;9.25;;;4.25;;
70545;SDS011;58098;51.680;5.134;2023-03-23T02:46:16;5.88;;;4.00;;
70545;SDS011;58098;51.680;5.134;2023-03-23T02:48:45;10.43;;;4.72;;
70545;SDS011;58098;51.680;5.134;2023-03-23T02:51:13;6.83;;;4.20;;
70545;SDS011;58098;51.680;5.134;2023-03-23T02:53:40;8.60;;;4.35;;
70545;SDS011;58098;51.680;5.134;2023-03-23T02:56:08;7.35;;;4.50;;
70545;SDS011;58098;51.680;5.134;2023-03-23T02:58:35;7.18;;;4.03;;
70545;SDS011;58098;51.680;5.134;2023-03-23T03:03:52;5.65;;;4.00;;
70545;SDS011;58098;51.680;5.134;2023-03-23T03:06:23;6.15;;;4.40;;
70545;SDS011;58098;51.680;5.134;2023-03-23T03:11:33;7.17;;;4.17;;
70545;SDS011;58098;51.680;5.134;2023-03-23T03:14:03;5.47;;;3.95;;
70545;SDS011;58098;51.680;5.134;2023-03-23T03:19:24;6.10;;;4.05;;
70545;SDS011;58098;51.680;5.134;2023-03-23T03:21:54;9.60;;;4.40;;
70545;SDS011;58098;51.680;5.134;2023-03-23T03:24:22;6.37;;;3.77;;
70545;SDS011;58098;51.680;5.134;2023-03-23T03:26:51;5.65;;;4.13;;
70545;SDS011;58098;51.680;5.134;2023-03-23T03:29:20;5.15;;;3.75;;
70545;SDS011;58098;51.680;5.134;2023-03-23T03:31:49;7.07;;;3.55;;
70545;SDS011;58098;51.680;5.134;2023-03-23T03:34:20;7.32;;;4.38;;
70545;SDS011;58098;51.680;5.134;2023-03-23T03:36:47;7.70;;;3.97;;
70545;SDS011;58098;51.680;5.134;2023-03-23T03:39:15;5.57;;;3.40;;
70545;SDS011;58098;51.680;5.134;2023-03-23T03:41:42;7.07;;;3.47;;
70545;SDS011;58098;51.680;5.134;2023-03-23T03:44:08;5.78;;;3.28;;
70545;SDS011;58098;51.680;5.134;2023-03-23T03:46:35;6.93;;;3.35;;
70545;SDS011;58098;51.680;5.134;2023-03-23T03:49:01;5.40;;;3.30;;
70545;SDS011;58098;51.680;5.134;2023-03-23T03:51:28;5.53;;;3.28;;
70545;SDS011;58098;51.680;5.134;2023-03-23T03:53:55;8.02;;;3.85;;
70545;SDS011;58098;51.680;5.134;2023-03-23T03:56:21;7.70;;;3.55;;
70545;SDS011;58098;51.680;5.134;2023-03-23T03:58:47;8.20;;;3.90;;
70545;SDS011;58098;51.680;5.134;2023-03-23T04:01:14;5.53;;;3.30;;
70545;SDS011;58098;51.680;5.134;2023-03-23T04:03:40;8.73;;;3.67;;
70545;SDS011;58098;51.680;5.134;2023-03-23T04:06:06;5.68;;;3.10;;
70545;SDS011;58098;51.680;5.134;2023-03-23T04:08:33;6.65;;;3.40;;
70545;SDS011;58098;51.680;5.134;2023-03-23T04:10:59;5.27;;;3.43;;
70545;SDS011;58098;51.680;5.134;2023-03-23T04:13:25;8.30;;;3.20;;
70545;SDS011;58098;51.680;5.134;2023-03-23T04:15:51;6.93;;;3.30;;
70545;SDS011;58098;51.680;5.134;2023-03-23T04:18:16;7.53;;;3.20;;
70545;SDS011;58098;51.680;5.134;2023-03-23T04:20:43;8.77;;;3.50;;
70545;SDS011;58098;51.680;5.134;2023-03-23T04:23:12;9.07;;;3.13;;
70545;SDS011;58098;51.680;5.134;2023-03-23T04:25:38;9.38;;;2.95;;
70545;SDS011;58098;51.680;5.134;2023-03-23T04:28:05;10.98;;;3.30;;
70545;SDS011;58098;51.680;5.134;2023-03-23T04:30:32;10.13;;;3.00;;
70545;SDS011;58098;51.680;5.134;2023-03-23T04:32:57;7.90;;;2.87;;
70545;SDS011;58098;51.680;5.134;2023-03-23T04:35:25;7.78;;;3.00;;
70545;SDS011;58098;51.680;5.134;2023-03-23T04:37:51;10.57;;;3.57;;
70545;SDS011;58098;51.680;5.134;2023-03-23T04:40:17;9.15;;;3.10;;
70545;SDS011;58098;51.680;5.134;2023-03-23T04:42:43;6.30;;;2.40;;
70545;SDS011;58098;51.680;5.134;2023-03-23T04:45:15;10.93;;;2.73;;
70545;SDS011;58098;51.680;5.134;2023-03-23T04:47:46;10.63;;;3.05;;
70545;SDS011;58098;51.680;5.134;2023-03-23T04:50:18;7.68;;;2.90;;
70545;SDS011;58098;51.680;5.134;2023-03-23T04:52:45;8.57;;;3.15;;
70545;SDS011;58098;51.680;5.134;2023-03-23T04:55:11;10.57;;;3.23;;
70545;SDS011;58098;51.680;5.134;2023-03-23T04:57:37;9.00;;;2.40;;
70545;SDS011;58098;51.680;5.134;2023-03-23T05:00:03;7.13;;;2.58;;
70545;SDS011;58098;51.680;5.134;2023-03-23T05:02:34;9.80;;;2.88;;
70545;SDS011;58098;51.680;5.134;2023-03-23T05:05:04;7.20;;;2.63;;
70545;SDS011;58098;51.680;5.134;2023-03-23T05:07:30;9.27;;;2.72;;
70545;SDS011;58098;51.680;5.134;2023-03-23T05:09:56;5.10;;;2.40;;
70545;SDS011;58098;51.680;5.134;2023-03-23T05:12:21;7.10;;;2.93;;
70545;SDS011;58098;51.680;5.134;2023-03-23T05:14:46;10.68;;;2.33;;
70545;SDS011;58098;51.680;5.134;2023-03-23T05:17:12;7.93;;;2.73;;
70545;SDS011;58098;51.680;5.134;2023-03-23T05:19:41;7.55;;;2.60;;
70545;SDS011;58098;51.680;5.134;2023-03-23T05:22:08;6.43;;;2.47;;
70545;SDS011;58098;51.680;5.134;2023-03-23T05:24:34;9.85;;;2.63;;
70545;SDS011;58098;51.680;5.134;2023-03-23T05:27:00;7.17;;;2.60;;
70545;SDS011;58098;51.680;5.134;2023-03-23T05:29:25;6.53;;;2.50;;
70545;SDS011;58098;51.680;5.134;2023-03-23T05:31:51;9.20;;;3.10;;
70545;SDS011;58098;51.680;5.134;2023-03-23T05:34:18;9.25;;;2.50;;
70545;SDS011;58098;51.680;5.134;2023-03-23T05:36:44;10.77;;;3.00;;
70545;SDS011;58098;51.680;5.134;2023-03-23T05:39:10;10.37;;;2.93;;
70545;SDS011;58098;51.680;5.134;2023-03-23T05:41:36;10.15;;;2.95;;
70545;SDS011;58098;51.680;5.134;2023-03-23T05:44:02;6.70;;;2.45;;
70545;SDS011;58098;51.680;5.134;2023-03-23T05:46:28;12.23;;;2.93;;
70545;SDS011;58098;51.680;5.134;2023-03-23T05:48:54;12.18;;;2.83;;
70545;SDS011;58098;51.680;5.134;2023-03-23T05:51:19;8.20;;;2.53;;
70545;SDS011;58098;51.680;5.134;2023-03-23T05:53:45;7.18;;;2.42;;
70545;SDS011;58098;51.680;5.134;2023-03-23T05:56:12;9.93;;;2.57;;
70545;SDS011;58098;51.680;5.134;2023-03-23T05:58:38;9.32;;;3.05;;
70545;SDS011;58098;51.680;5.134;2023-03-23T06:01:06;9.67;;;2.90;;
70545;SDS011;58098;51.680;5.134;2023-03-23T06:03:32;10.95;;;2.92;;
70545;SDS011;58098;51.680;5.134;2023-03-23T06:05:57;7.50;;;2.67;;
70545;SDS011;58098;51.680;5.134;2023-03-23T06:08:23;9.27;;;2.78;;
70545;SDS011;58098;51.680;5.134;2023-03-23T06:10:49;7.70;;;3.07;;
70545;SDS011;58098;51.680;5.134;2023-03-23T06:13:14;8.73;;;2.58;;
70545;SDS011;58098;51.680;5.134;2023-03-23T06:15:40;5.30;;;2.77;;
70545;SDS011;58098;51.680;5.134;2023-03-23T06:18:05;10.17;;;3.40;;
70545;SDS011;58098;51.680;5.134;2023-03-23T06:20:31;12.27;;;3.85;;
70545;SDS011;58098;51.680;5.134;2023-03-23T06:22:57;12.95;;;3.17;;
70545;SDS011;58098;51.680;5.134;2023-03-23T06:25:23;11.02;;;3.30;;
70545;SDS011;58098;51.680;5.134;2023-03-23T06:27:49;12.17;;;3.50;;
70545;SDS011;58098;51.680;5.134;2023-03-23T06:30:17;12.35;;;3.80;;
70545;SDS011;58098;51.680;5.134;2023-03-23T06:32:42;7.73;;;3.27;;
70545;SDS011;58098;51.680;5.134;2023-03-23T06:35:09;10.00;;;3.33;;
70545;SDS011;58098;51.680;5.134;2023-03-23T06:37:36;10.20;;;3.53;;
70545;SDS011;58098;51.680;5.134;2023-03-23T06:40:02;24.30;;;4.05;;
70545;SDS011;58098;51.680;5.134;2023-03-23T06:42:32;20.70;;;4.37;;
70545;SDS011;58098;51.680;5.134;2023-03-23T06:44:58;10.25;;;3.00;;
70545;SDS011;58098;51.680;5.134;2023-03-23T06:47:25;17.67;;;4.15;;
70545;SDS011;58098;51.680;5.134;2023-03-23T06:49:54;19.88;;;4.95;;
70545;SDS011;58098;51.680;5.134;2023-03-23T06:52:21;18.90;;;5.50;;
70545;SDS011;58098;51.680;5.134;2023-03-23T06:54:48;21.80;;;4.90;;
70545;SDS011;58098;51.680;5.134;2023-03-23T06:57:14;16.45;;;4.65;;
70545;SDS011;58098;51.680;5.134;2023-03-23T06:59:39;14.00;;;4.57;;
70545;SDS011;58098;51.680;5.134;2023-03-23T07:02:05;18.77;;;5.27;;
70545;SDS011;58098;51.680;5.134;2023-03-23T07:04:31;15.27;;;4.63;;
70545;SDS011;58098;51.680;5.134;2023-03-23T07:06:57;15.98;;;5.15;;
70545;SDS011;58098;51.680;5.134;2023-03-23T07:09:22;16.57;;;5.33;;
70545;SDS011;58098;51.680;5.134;2023-03-23T07:11:48;17.73;;;5.50;;
70545;SDS011;58098;51.680;5.134;2023-03-23T07:14:13;14.47;;;5.13;;
70545;SDS011;58098;51.680;5.134;2023-03-23T07:16:39;17.13;;;4.88;;
70545;SDS011;58098;51.680;5.134;2023-03-23T07:19:05;10.97;;;4.87;;
70545;SDS011;58098;51.680;5.134;2023-03-23T07:21:30;21.93;;;4.73;;
70545;SDS011;58098;51.680;5.134;2023-03-23T07:23:56;19.10;;;4.70;;
70545;SDS011;58098;51.680;5.134;2023-03-23T07:26:21;13.03;;;4.97;;
70545;SDS011;58098;51.680;5.134;2023-03-23T07:28:47;16.92;;;4.65;;
70545;SDS011;58098;51.680;5.134;2023-03-23T07:31:12;16.83;;;4.60;;
70545;SDS011;58098;51.680;5.134;2023-03-23T07:33:38;12.77;;;3.83;;
70545;SDS011;58098;51.680;5.134;2023-03-23T07:36:04;11.17;;;4.80;;
70545;SDS011;58098;51.680;5.134;2023-03-23T07:38:30;10.30;;;3.80;;
70545;SDS011;58098;51.680;5.134;2023-03-23T07:40:55;11.93;;;4.63;;
70545;SDS011;58098;51.680;5.134;2023-03-23T07:43:21;11.07;;;3.42;;
70545;SDS011;58098;51.680;5.134;2023-03-23T07:45:47;14.55;;;3.95;;
70545;SDS011;58098;51.680;5.134;2023-03-23T07:48:12;12.00;;;3.50;;
70545;SDS011;58098;51.680;5.134;2023-03-23T07:50:38;8.27;;;3.83;;
70545;SDS011;58098;51.680;5.134;2023-03-23T07:53:03;10.67;;;3.43;;
70545;SDS011;58098;51.680;5.134;2023-03-23T07:55:29;9.98;;;4.05;;
70545;SDS011;58098;51.680;5.134;2023-03-23T07:57:54;7.17;;;3.00;;
70545;SDS011;58098;51.680;5.134;2023-03-23T08:00:20;9.37;;;3.20;;
70545;SDS011;58098;51.680;5.134;2023-03-23T08:02:50;11.30;;;3.55;;
70545;SDS011;58098;51.680;5.134;2023-03-23T08:05:17;7.47;;;3.40;;
70545;SDS011;58098;51.680;5.134;2023-03-23T08:07:43;9.50;;;3.00;;
70545;SDS011;58098;51.680;5.134;2023-03-23T08:10:10;13.43;;;3.33;;
70545;SDS011;58098;51.680;5.134;2023-03-23T08:12:40;7.28;;;3.30;;
70545;SDS011;58098;51.680;5.134;2023-03-23T08:15:08;4.80;;;2.40;;
70545;SDS011;58098;51.680;5.134;2023-03-23T08:17:37;6.95;;;2.70;;
70545;SDS011;58098;51.680;5.134;2023-03-23T08:20:04;9.23;;;2.40;;
70545;SDS011;58098;51.680;5.134;2023-03-23T08:22:36;5.75;;;2.42;;
70545;SDS011;58098;51.680;5.134;2023-03-23T08:25:03;8.20;;;2.88;;
70545;SDS011;58098;51.680;5.134;2023-03-23T08:27:31;11.20;;;2.67;;
70545;SDS011;58098;51.680;5.134;2023-03-23T08:29:56;7.17;;;2.57;;
70545;SDS011;58098;51.680;5.134;2023-03-23T08:32:22;6.05;;;2.25;;
70545;SDS011;58098;51.680;5.134;2023-03-23T08:34:47;6.63;;;2.80;;
70545;SDS011;58098;51.680;5.134;2023-03-23T08:37:13;5.32;;;2.30;;
70545;SDS011;58098;51.680;5.134;2023-03-23T08:39:39;6.33;;;2.50;;
70545;SDS011;58098;51.680;5.134;2023-03-23T08:42:05;5.65;;;2.70;;
70545;SDS011;58098;51.680;5.134;2023-03-23T08:44:30;6.83;;;2.23;;
70545;SDS011;58098;51.680;5.134;2023-03-23T08:46:55;4.50;;;2.50;;
70545;SDS011;58098;51.680;5.134;2023-03-23T08:49:21;4.20;;;2.30;;
70545;SDS011;58098;51.680;5.134;2023-03-23T08:51:47;4.83;;;2.70;;
70545;SDS011;58098;51.680;5.134;2023-03-23T08:54:13;11.55;;;2.80;;
70545;SDS011;58098;51.680;5.134;2023-03-23T08:56:38;7.37;;;2.87;;
70545;SDS011;58098;51.680;5.134;2023-03-23T08:59:03;5.93;;;2.60;;
70545;SDS011;58098;51.680;5.134;2023-03-23T09:01:29;6.97;;;2.70;;
70545;SDS011;58098;51.680;5.134;2023-03-23T09:03:54;11.50;;;2.23;;
70545;SDS011;58098;51.680;5.134;2023-03-23T09:06:19;6.13;;;2.63;;
70545;SDS011;58098;51.680;5.134;2023-03-23T09:08:45;6.97;;;2.65;;
70545;SDS011;58098;51.680;5.134;2023-03-23T09:11:10;8.33;;;2.57;;
70545;SDS011;58098;51.680;5.134;2023-03-23T09:13:37;6.93;;;2.97;;
70545;SDS011;58098;51.680;5.134;2023-03-23T09:16:03;10.87;;;2.80;;
70545;SDS011;58098;51.680;5.134;2023-03-23T09:18:30;12.48;;;2.30;;
70545;SDS011;58098;51.680;5.134;2023-03-23T09:20:57;12.65;;;2.90;;
70545;SDS011;58098;51.680;5.134;2023-03-23T09:23:23;9.07;;;2.63;;
70545;SDS011;58098;51.680;5.134;2023-03-23T09:25:49;6.15;;;2.92;;
70545;SDS011;58098;51.680;5.134;2023-03-23T09:28:16;13.60;;;3.30;;
70545;SDS011;58098;51.680;5.134;2023-03-23T09:30:41;16.00;;;3.53;;
70545;SDS011;58098;51.680;5.134;2023-03-23T09:33:07;11.17;;;2.77;;
70545;SDS011;58098;51.680;5.134;2023-03-23T09:35:33;13.32;;;2.97;;
70545;SDS011;58098;51.680;5.134;2023-03-23T09:38:02;12.00;;;3.42;;
70545;SDS011;58098;51.680;5.134;2023-03-23T09:40:30;13.87;;;3.53;;
70545;SDS011;58098;51.680;5.134;2023-03-23T09:48:51;13.43;;;3.42;;
70545;SDS011;58098;51.680;5.134;2023-03-23T09:51:19;11.85;;;2.75;;
70545;SDS011;58098;51.680;5.134;2023-03-23T09:54:10;11.43;;;2.93;;
70545;SDS011;58098;51.680;5.134;2023-03-23T09:56:37;12.27;;;3.13;;
70545;SDS011;58098;51.680;5.134;2023-03-23T09:59:07;11.65;;;3.17;;
70545;SDS011;58098;51.680;5.134;2023-03-23T10:01:49;11.07;;;3.07;;
70545;SDS011;58098;51.680;5.134;2023-03-23T10:04:48;13.82;;;3.95;;
70545;SDS011;58098;51.680;5.134;2023-03-23T10:09:52;11.38;;;2.95;;
70545;SDS011;58098;51.680;5.134;2023-03-23T10:12:21;11.88;;;3.97;;
70545;SDS011;58098;51.680;5.134;2023-03-23T10:15:17;9.17;;;3.07;;
70545;SDS011;58098;51.680;5.134;2023-03-23T10:17:59;12.50;;;3.10;;
70545;SDS011;58098;51.680;5.134;2023-03-23T10:25:48;6.37;;;2.90;;
70545;SDS011;58098;51.680;5.134;2023-03-23T10:28:17;14.20;;;3.67;;
70545;SDS011;58098;51.680;5.134;2023-03-23T10:30:51;12.70;;;4.05;;
70545;SDS011;58098;51.680;5.134;2023-03-23T10:39:20;11.38;;;3.10;;
70545;SDS011;58098;51.680;5.134;2023-03-23T10:41:48;9.77;;;2.92;;
70545;SDS011;58098;51.680;5.134;2023-03-23T10:44:18;12.57;;;3.60;;
70545;SDS011;58098;51.680;5.134;2023-03-23T10:49:17;10.68;;;3.45;;
70545;SDS011;58098;51.680;5.134;2023-03-23T10:51:49;12.33;;;3.30;;
70545;SDS011;58098;51.680;5.134;2023-03-23T10:54:25;9.63;;;3.03;;
70545;SDS011;58098;51.680;5.134;2023-03-23T10:56:53;10.70;;;3.33;;
70545;SDS011;58098;51.680;5.134;2023-03-23T10:59:20;12.15;;;2.97;;
70545;SDS011;58098;51.680;5.134;2023-03-23T11:01:58;13.37;;;3.83;;
70545;SDS011;58098;51.680;5.134;2023-03-23T11:04:30;9.65;;;3.15;;
70545;SDS011;58098;51.680;5.134;2023-03-23T11:06:58;6.97;;;2.92;;
70545;SDS011;58098;51.680;5.134;2023-03-23T11:09:36;8.88;;;2.47;;
70545;SDS011;58098;51.680;5.134;2023-03-23T11:12:03;9.98;;;2.40;;
70545;SDS011;58098;51.680;5.134;2023-03-23T11:14:30;10.43;;;2.33;;
70545;SDS011;58098;51.680;5.134;2023-03-23T11:16:59;9.73;;;3.00;;
70545;SDS011;58098;51.680;5.134;2023-03-23T11:19:28;9.80;;;3.38;;
70545;SDS011;58098;51.680;5.134;2023-03-23T11:22:08;7.83;;;2.77;;
70545;SDS011;58098;51.680;5.134;2023-03-23T11:24:41;7.00;;;2.67;;
70545;SDS011;58098;51.680;5.134;2023-03-23T11:27:09;8.00;;;3.13;;
70545;SDS011;58098;51.680;5.134;2023-03-23T11:29:41;10.25;;;2.92;;
70545;SDS011;58098;51.680;5.134;2023-03-23T11:32:18;9.15;;;3.47;;
70545;SDS011;58098;51.680;5.134;2023-03-23T11:34:49;6.50;;;2.37;;
70545;SDS011;58098;51.680;5.134;2023-03-23T11:37:23;7.78;;;2.55;;
70545;SDS011;58098;51.680;5.134;2023-03-23T11:50:45;6.68;;;2.35;;
70545;SDS011;58098;51.680;5.134;2023-03-23T11:53:31;5.63;;;2.47;;
70545;SDS011;58098;51.680;5.134;2023-03-23T11:56:27;9.32;;;2.90;;
70545;SDS011;58098;51.680;5.134;2023-03-23T11:59:02;9.43;;;2.90;;
70545;SDS011;58098;51.680;5.134;2023-03-23T12:04:27;7.35;;;2.67;;
70545;SDS011;58098;51.680;5.134;2023-03-23T12:17:54;6.60;;;3.03;;
70545;SDS011;58098;51.680;5.134;2023-03-23T12:20:41;9.48;;;3.13;;
70545;SDS011;58098;51.680;5.134;2023-03-23T12:23:27;5.43;;;2.67;;
70545;SDS011;58098;51.680;5.134;2023-03-23T12:31:23;8.32;;;2.60;;
70545;SDS011;58098;51.680;5.134;2023-03-23T12:37:26;5.85;;;2.20;;
70545;SDS011;58098;51.680;5.134;2023-03-23T12:40:02;7.60;;;2.58;;
70545;SDS011;58098;51.680;5.134;2023-03-23T12:42:39;6.70;;;2.43;;
70545;SDS011;58098;51.680;5.134;2023-03-23T12:45:28;6.53;;;2.70;;
70545;SDS011;58098;51.680;5.134;2023-03-23T12:48:10;7.80;;;3.35;;
70545;SDS011;58098;51.680;5.134;2023-03-23T12:51:00;8.48;;;2.90;;
70545;SDS011;58098;51.680;5.134;2023-03-23T12:53:33;9.30;;;2.80;;
70545;SDS011;58098;51.680;5.134;2023-03-23T12:58:53;10.52;;;2.92;;
70545;SDS011;58098;51.680;5.134;2023-03-23T13:01:31;8.95;;;2.72;;
70545;SDS011;58098;51.680;5.134;2023-03-23T13:04:08;8.25;;;3.00;;
70545;SDS011;58098;51.680;5.134;2023-03-23T13:06:38;10.02;;;3.05;;
70545;SDS011;58098;51.680;5.134;2023-03-23T13:09:11;9.07;;;2.50;;
70545;SDS011;58098;51.680;5.134;2023-03-23T13:11:42;7.28;;;3.30;;
70545;SDS011;58098;51.680;5.134;2023-03-23T13:14:24;14.40;;;3.50;;
70545;SDS011;58098;51.680;5.134;2023-03-23T13:19:51;10.27;;;2.78;;
70545;SDS011;58098;51.680;5.134;2023-03-23T13:22:37;9.00;;;3.60;;
70545;SDS011;58098;51.680;5.134;2023-03-23T13:25:13;6.47;;;2.80;;
70545;SDS011;58098;51.680;5.134;2023-03-23T13:27:43;10.38;;;2.58;;
70545;SDS011;58098;51.680;5.134;2023-03-23T13:30:19;7.20;;;2.87;;
70545;SDS011;58098;51.680;5.134;2023-03-23T13:32:49;10.32;;;2.35;;
70545;SDS011;58098;51.680;5.134;2023-03-23T13:35:16;6.85;;;2.33;;
70545;SDS011;58098;51.680;5.134;2023-03-23T13:37:46;9.30;;;2.60;;
70545;SDS011;58098;51.680;5.134;2023-03-23T13:42:57;10.23;;;2.97;;
70545;SDS011;58098;51.680;5.134;2023-03-23T13:51:21;12.05;;;2.55;;
70545;SDS011;58098;51.680;5.134;2023-03-23T13:53:43;9.93;;;2.47;;
70545;SDS011;58098;51.680;5.134;2023-03-23T13:56:16;6.35;;;2.58;;
70545;SDS011;58098;51.680;5.134;2023-03-23T13:58:48;10.48;;;2.47;;
70545;SDS011;58098;51.680;5.134;2023-03-23T14:01:30;10.10;;;3.05;;
70545;SDS011;58098;51.680;5.134;2023-03-23T14:04:05;7.28;;;2.72;;
70545;SDS011;58098;51.680;5.134;2023-03-23T14:06:35;7.93;;;2.50;;
70545;SDS011;58098;51.680;5.134;2023-03-23T14:09:06;9.00;;;2.53;;
70545;SDS011;58098;51.680;5.134;2023-03-23T14:11:59;9.82;;;2.45;;
70545;SDS011;58098;51.680;5.134;2023-03-23T14:14:33;12.88;;;2.97;;
70545;SDS011;58098;51.680;5.134;2023-03-23T14:19:37;11.33;;;3.10;;
70545;SDS011;58098;51.680;5.134;2023-03-23T14:22:04;9.35;;;2.88;;
70545;SDS011;58098;51.680;5.134;2023-03-23T14:24:51;9.82;;;3.13;;
70545;SDS011;58098;51.680;5.134;2023-03-23T14:27:19;8.02;;;2.85;;
70545;SDS011;58098;51.680;5.134;2023-03-23T14:30:00;12.98;;;3.20;;
70545;SDS011;58098;51.680;5.134;2023-03-23T14:32:28;7.13;;;2.63;;
70545;SDS011;58098;51.680;5.134;2023-03-23T14:34:56;10.93;;;3.00;;
70545;SDS011;58098;51.680;5.134;2023-03-23T14:37:22;9.57;;;2.65;;
70545;SDS011;58098;51.680;5.134;2023-03-23T14:39:49;9.07;;;2.93;;
70545;SDS011;58098;51.680;5.134;2023-03-23T14:42:17;9.48;;;2.90;;
70545;SDS011;58098;51.680;5.134;2023-03-23T14:44:47;8.18;;;2.83;;
70545;SDS011;58098;51.680;5.134;2023-03-23T14:47:21;9.75;;;2.80;;
70545;SDS011;58098;51.680;5.134;2023-03-23T14:49:54;11.45;;;3.28;;
70545;SDS011;58098;51.680;5.134;2023-03-23T14:52:24;9.07;;;2.90;;
70545;SDS011;58098;51.680;5.134;2023-03-23T14:54:54;8.43;;;2.80;;
70545;SDS011;58098;51.680;5.134;2023-03-23T14:59:48;10.45;;;3.05;;
70545;SDS011;58098;51.680;5.134;2023-03-23T15:02:20;11.87;;;3.30;;
70545;SDS011;58098;51.680;5.134;2023-03-23T15:04:48;9.73;;;2.97;;
70545;SDS011;58098;51.680;5.134;2023-03-23T15:07:18;11.23;;;2.78;;
70545;SDS011;58098;51.680;5.134;2023-03-23T15:09:45;11.27;;;2.67;;
70545;SDS011;58098;51.680;5.134;2023-03-23T15:12:18;10.68;;;2.70;;
70545;SDS011;58098;51.680;5.134;2023-03-23T15:14:47;13.20;;;2.72;;
70545;SDS011;58098;51.680;5.134;2023-03-23T15:17:18;8.30;;;2.75;;
70545;SDS011;58098;51.680;5.134;2023-03-23T15:19:46;8.60;;;2.40;;
70545;SDS011;58098;51.680;5.134;2023-03-23T15:22:19;10.93;;;2.77;;
70545;SDS011;58098;51.680;5.134;2023-03-23T15:25:01;9.75;;;2.65;;
70545;SDS011;58098;51.680;5.134;2023-03-23T15:27:44;9.27;;;2.63;;
70545;SDS011;58098;51.680;5.134;2023-03-23T15:32:53;10.65;;;2.55;;
70545;SDS011;58098;51.680;5.134;2023-03-23T15:35:24;12.77;;;3.07;;
70545;SDS011;58098;51.680;5.134;2023-03-23T15:38:01;11.30;;;3.30;;
70545;SDS011;58098;51.680;5.134;2023-03-23T15:40:31;9.60;;;2.58;;
70545;SDS011;58098;51.680;5.134;2023-03-23T15:45:51;8.95;;;2.60;;
70545;SDS011;58098;51.680;5.134;2023-03-23T15:48:46;11.83;;;2.70;;
70545;SDS011;58098;51.680;5.134;2023-03-23T15:51:13;9.02;;;2.30;;
70545;SDS011;58098;51.680;5.134;2023-03-23T15:53:40;11.75;;;3.20;;
70545;SDS011;58098;51.680;5.134;2023-03-23T15:56:07;7.05;;;2.58;;
70545;SDS011;58098;51.680;5.134;2023-03-23T15:58:34;9.13;;;2.23;;
70545;SDS011;58098;51.680;5.134;2023-03-23T16:01:02;8.15;;;2.95;;
70545;SDS011;58098;51.680;5.134;2023-03-23T16:03:40;10.98;;;2.58;;
70545;SDS011;58098;51.680;5.134;2023-03-23T16:06:09;10.27;;;2.47;;
70545;SDS011;58098;51.680;5.134;2023-03-23T16:08:36;11.88;;;2.92;;
70545;SDS011;58098;51.680;5.134;2023-03-23T16:11:05;8.00;;;2.50;;
70545;SDS011;58098;51.680;5.134;2023-03-23T16:13:34;8.05;;;2.45;;
70545;SDS011;58098;51.680;5.134;2023-03-23T16:16:00;7.37;;;2.80;;
70545;SDS011;58098;51.680;5.134;2023-03-23T16:18:26;7.78;;;2.90;;
70545;SDS011;58098;51.680;5.134;2023-03-23T16:20:52;9.43;;;2.07;;
70545;SDS011;58098;51.680;5.134;2023-03-23T16:23:17;8.43;;;2.70;;
70545;SDS011;58098;51.680;5.134;2023-03-23T16:25:43;9.07;;;2.80;;
70545;SDS011;58098;51.680;5.134;2023-03-23T16:28:10;11.27;;;3.30;;
70545;SDS011;58098;51.680;5.134;2023-03-23T16:30:36;9.45;;;2.75;;
70545;SDS011;58098;51.680;5.134;2023-03-23T16:33:02;10.90;;;2.90;;
70545;SDS011;58098;51.680;5.134;2023-03-23T16:35:27;10.10;;;3.00;;
70545;SDS011;58098;51.680;5.134;2023-03-23T16:37:54;6.68;;;2.72;;
70545;SDS011;58098;51.680;5.134;2023-03-23T16:40:21;11.30;;;3.20;;
70545;SDS011;58098;51.680;5.134;2023-03-23T16:42:47;7.88;;;2.50;;